9TX1 weather

Bar S Ranch Airport
Giddings, Texas, United States

Public forecast

Using degrees Fahrenheit for public forecast. Weather courtesy of forecast.io.

Closest aviation weather report (METAR) to Bar S Ranch Airport

Closest report is Giddings-Lee County Airport, 6.6 nm (12.3 km) WNW. Retrieved 2020/08/08 23:15 UTC (4 minutes ago):

KGYB 082315Z AUTO 15008KT 10SM SCT055 SCT070 37/21 A3004 RMK AO2 T03700213

Closest aviation forecast (TAF) to Bar S Ranch Airport

Closest forecast is Easterwood Field, 36.9 nm (68.4 km) NE. Retrieved 2020/08/08 18:22 UTC (5 hours ago):

TAF KCLL 081720Z 0818/0918 17009KT P6SM SCT045 FM090200 16006KT P6SM SKC FM091200 17004KT P6SM FEW008 FM091400 19008KT P6SM BKN015 FM091600 19009KT P6SM FEW025 SCT035